Time;durP1;ratioP1;P1;durP2;ratioP2;P2;SDS_P1;SDS_P2;PMS_P1;PMS_P2;Temp;Humidity;BMP_temperature;BMP_pressure;BME280_temperature;BME280_humidity;BME280_pressure;Samples;Min_cycle;Max_cycle;Signal;HPM_P1;HPM_P2
2021/07/11 00:00:22;;;;;;;6.13;5.05;;;17.10;90.60;;;;;;5044829;28;20079;-78
2021/07/11 00:02:47;;;;;;;7.35;5.70;;;17.10;90.60;;;;;;5044782;28;20030;-78
2021/07/11 00:05:15;;;;;;;5.78;4.85;;;17.10;90.70;;;;;;5044537;28;20548;-77
2021/07/11 00:07:41;;;;;;;6.07;5.47;;;17.10;90.70;;;;;;5029664;28;20025;-78
2021/07/11 00:10:09;;;;;;;6.15;5.40;;;17.20;90.80;;;;;;5028201;28;20037;-77
2021/07/11 00:12:36;;;;;;;7.50;5.35;;;17.20;90.80;;;;;;5043709;28;20030;-79
2021/07/11 00:15:09;;;;;;;5.63;5.13;;;17.20;90.80;;;;;;5028382;28;20036;-78
2021/07/11 00:17:35;;;;;;;5.78;5.28;;;17.20;90.80;;;;;;5045147;28;20028;-79
2021/07/11 00:20:00;;;;;;;6.88;4.75;;;17.20;90.70;;;;;;5028475;28;20030;-79
2021/07/11 00:22:26;;;;;;;5.72;4.82;;;17.30;90.70;;;;;;5027978;28;20099;-78
2021/07/11 00:24:52;;;;;;;5.82;5.20;;;17.30;90.70;;;;;;5029296;28;20033;-79
2021/07/11 00:27:18;;;;;;;5.75;5.22;;;17.30;90.70;;;;;;5027903;28;20057;-78
2021/07/11 00:29:43;;;;;;;6.28;5.60;;;17.30;90.70;;;;;;5027867;28;20452;-78
2021/07/11 00:32:09;;;;;;;7.65;5.78;;;17.30;90.70;;;;;;5028302;28;20052;-78
2021/07/11 00:34:35;;;;;;;10.23;6.78;;;17.30;90.70;;;;;;5029368;28;20037;-79
2021/07/11 00:37:01;;;;;;;7.00;5.20;;;17.30;90.70;;;;;;5044749;28;20029;-78
2021/07/11 00:39:27;;;;;;;6.30;5.70;;;17.20;90.60;;;;;;5045240;28;20072;-78
2021/07/11 00:41:53;;;;;;;7.03;6.32;;;17.20;90.70;;;;;;5028550;28;20053;-79
2021/07/11 00:44:18;;;;;;;5.97;5.38;;;17.20;90.70;;;;;;5028841;28;20041;-78
2021/07/11 00:46:45;;;;;;;8.02;6.00;;;17.20;90.70;;;;;;5027820;28;20017;-79
2021/07/11 00:49:13;;;;;;;6.30;5.75;;;17.20;90.80;;;;;;5010729;28;20027;-79
2021/07/11 00:51:39;;;;;;;6.90;6.20;;;17.30;90.90;;;;;;5043761;28;20022;-79
2021/07/11 00:54:05;;;;;;;5.82;5.30;;;17.30;90.90;;;;;;5028102;28;20029;-77
2021/07/11 00:56:31;;;;;;;7.55;6.40;;;17.40;90.90;;;;;;5027339;28;20124;-78
2021/07/11 00:58:57;;;;;;;9.20;7.00;;;17.50;91.00;;;;;;5027971;28;20396;-78
2021/07/11 01:01:45;;;;;;;7.93;7.05;;;17.50;91.00;;;;;;5044277;28;20437;-79
2021/07/11 01:04:17;;;;;;;7.28;5.75;;;17.50;91.10;;;;;;5029174;28;20037;-78
2021/07/11 01:06:47;;;;;;;8.00;6.88;;;17.50;91.00;;;;;;5028762;28;20480;-78
2021/07/11 01:09:20;;;;;;;6.38;5.88;;;17.50;91.00;;;;;;5042814;28;20026;-79
2021/07/11 01:11:58;;;;;;;6.72;5.88;;;17.40;91.10;;;;;;5027616;28;20017;-78
2021/07/11 01:14:31;;;;;;;8.35;6.55;;;17.50;91.20;;;;;;5042629;28;20029;-79
2021/07/11 01:16:58;;;;;;;6.40;5.80;;;17.50;91.20;;;;;;5043011;28;20029;-78
2021/07/11 01:19:29;;;;;;;8.10;6.35;;;17.60;91.10;;;;;;5026667;28;20294;-79
2021/07/11 01:22:02;;;;;;;7.43;6.05;;;17.70;91.10;;;;;;5027720;28;20462;-78
2021/07/11 01:24:33;;;;;;;8.25;6.72;;;17.70;91.10;;;;;;5028299;28;20089;-78
2021/07/11 01:27:02;;;;;;;7.05;6.40;;;17.70;91.00;;;;;;5046804;28;20111;-78
2021/07/11 01:29:29;;;;;;;8.15;7.25;;;17.80;91.00;;;;;;5031263;28;20369;-79
2021/07/11 01:31:55;;;;;;;7.25;5.45;;;17.80;90.90;;;;;;5047338;28;20026;-77
2021/07/11 01:34:23;;;;;;;6.63;6.03;;;17.80;90.90;;;;;;5047613;28;20396;-79
2021/07/11 01:36:50;;;;;;;7.03;6.15;;;17.80;91.00;;;;;;5031048;28;20040;-78
2021/07/11 01:39:16;;;;;;;9.40;8.10;;;17.80;91.00;;;;;;5032631;28;20339;-78
2021/07/11 01:41:45;;;;;;;6.43;5.78;;;17.80;91.00;;;;;;5031470;28;20084;-78
2021/07/11 01:44:12;;;;;;;6.88;5.30;;;17.90;91.10;;;;;;5031556;28;20092;-78
2021/07/11 01:46:41;;;;;;;8.57;6.07;;;17.90;91.00;;;;;;5030703;28;20125;-78
2021/07/11 01:49:07;;;;;;;8.93;6.75;;;17.90;91.10;;;;;;5030533;28;20120;-78
2021/07/11 01:51:34;;;;;;;6.55;6.00;;;17.90;91.10;;;;;;5046897;28;20447;-79
2021/07/11 01:54:00;;;;;;;6.45;5.72;;;17.90;91.20;;;;;;5030124;28;20038;-79
2021/07/11 01:56:27;;;;;;;6.43;5.80;;;17.80;91.20;;;;;;5046989;28;20033;-78
2021/07/11 01:58:53;;;;;;;7.25;5.80;;;17.80;91.20;;;;;;5031016;28;20026;-79
2021/07/11 02:01:19;;;;;;;7.85;5.40;;;17.90;91.30;;;;;;5032319;28;20466;-79
2021/07/11 02:03:45;;;;;;;6.20;5.28;;;17.90;91.30;;;;;;5031111;28;20033;-77
2021/07/11 02:06:13;;;;;;;5.53;5.03;;;17.90;91.30;;;;;;5046863;28;20427;-78
2021/07/11 02:08:41;;;;;;;6.13;5.53;;;17.90;91.20;;;;;;5031393;28;20030;-77
2021/07/11 02:11:09;;;;;;;7.45;5.32;;;17.90;91.20;;;;;;5031024;28;20022;-78
2021/07/11 02:13:57;;;;;;;10.38;5.85;;;17.90;91.20;;;;;;5031394;28;20029;-78
2021/07/11 02:16:46;;;;;;;6.28;4.53;;;17.90;91.30;;;;;;5047341;28;20053;-79
2021/07/11 02:19:13;;;;;;;4.97;4.35;;;17.80;91.50;;;;;;5031881;28;20025;-79
2021/07/11 02:21:39;;;;;;;4.80;4.28;;;17.80;91.50;;;;;;5047185;28;20068;-79
2021/07/11 02:24:05;;;;;;;5.70;4.43;;;17.80;91.80;;;;;;5031631;28;20638;-78
2021/07/11 02:26:36;;;;;;;4.30;3.90;;;17.80;92.00;;;;;;5029747;28;20025;-79
2021/07/11 02:29:04;;;;;;;4.88;4.53;;;17.80;92.30;;;;;;5046026;28;20032;-77
2021/07/11 02:31:35;;;;;;;5.15;4.40;;;17.80;92.30;;;;;;5029901;28;20026;-78
2021/07/11 02:34:01;;;;;;;4.63;4.25;;;17.80;92.40;;;;;;5031288;28;20014;-77
2021/07/11 02:36:30;;;;;;;4.38;4.00;;;17.80;92.50;;;;;;5030659;28;20506;-79
2021/07/11 02:39:00;;;;;;;5.03;4.18;;;17.80;92.60;;;;;;5031195;28;20025;-78
2021/07/11 02:41:29;;;;;;;5.63;4.47;;;17.80;92.70;;;;;;5047195;28;20049;-79
2021/07/11 02:44:00;;;;;;;4.65;4.30;;;17.90;92.80;;;;;;5046836;28;20032;-78
2021/07/11 02:46:32;;;;;;;4.78;4.38;;;17.80;92.80;;;;;;5045117;28;20449;-79
2021/07/11 02:49:01;;;;;;;4.30;3.90;;;17.80;92.80;;;;;;5029992;28;20088;-79
2021/07/11 02:51:29;;;;;;;5.43;4.30;;;17.80;92.90;;;;;;5029720;28;20026;-79
2021/07/11 02:53:59;;;;;;;6.40;4.55;;;17.90;92.90;;;;;;5028469;28;20033;-78
2021/07/11 02:56:27;;;;;;;5.35;4.90;;;17.80;93.00;;;;;;5045235;28;20022;-77
2021/07/11 02:58:56;;;;;;;5.97;5.00;;;17.90;93.00;;;;;;5031531;28;20116;-78
2021/07/11 03:01:24;;;;;;;6.85;5.03;;;17.90;93.00;;;;;;5030181;28;20067;-77
2021/07/11 03:03:53;;;;;;;9.75;5.15;;;17.90;92.90;;;;;;5031052;28;20026;-78
2021/07/11 03:06:18;;;;;;;5.28;4.70;;;17.90;92.90;;;;;;5031087;28;20033;-79
2021/07/11 03:08:44;;;;;;;5.32;4.82;;;17.90;92.90;;;;;;5029273;28;20021;-79
2021/07/11 03:11:11;;;;;;;6.47;5.63;;;17.90;92.80;;;;;;5030542;28;20067;-79
2021/07/11 03:13:38;;;;;;;5.50;5.00;;;17.90;92.70;;;;;;5045755;28;20029;-78
2021/07/11 03:16:05;;;;;;;7.35;5.10;;;17.90;92.70;;;;;;5045973;28;20033;-79
2021/07/11 03:18:34;;;;;;;6.75;5.22;;;17.90;92.60;;;;;;5046363;28;20042;-79
2021/07/11 03:21:00;;;;;;;6.53;5.82;;;17.90;92.50;;;;;;5046018;28;20075;-78
2021/07/11 03:23:27;;;;;;;6.30;5.10;;;17.90;92.40;;;;;;5046058;28;20037;-78
2021/07/11 03:25:53;;;;;;;6.07;5.60;;;17.90;92.40;;;;;;5030884;28;20100;-79
2021/07/11 03:28:20;;;;;;;5.45;5.05;;;17.90;92.40;;;;;;5029685;28;20039;-79
2021/07/11 03:30:49;;;;;;;15.23;5.18;;;17.80;92.30;;;;;;5028769;28;20033;-79
2021/07/11 03:33:16;;;;;;;5.53;5.10;;;17.80;92.30;;;;;;5045333;28;20396;-79
2021/07/11 03:35:49;;;;;;;9.25;5.68;;;17.80;92.30;;;;;;5028336;28;20052;-78
2021/07/11 03:38:19;;;;;;;11.30;5.90;;;17.70;92.40;;;;;;5045173;28;20026;-79
2021/07/11 03:40:47;;;;;;;5.70;5.30;;;17.70;92.40;;;;;;5044980;28;20029;-78
2021/07/11 03:43:15;;;;;;;6.03;5.43;;;17.70;92.40;;;;;;5028689;28;20037;-79
2021/07/11 03:45:42;;;;;;;8.20;5.85;;;17.70;92.40;;;;;;5028481;28;20500;-79
2021/07/11 03:48:13;;;;;;;6.20;5.55;;;17.60;92.40;;;;;;5044183;28;20029;-78
2021/07/11 03:50:41;;;;;;;7.10;5.55;;;17.60;92.50;;;;;;5029086;28;20017;-78
2021/07/11 03:53:09;;;;;;;6.38;5.57;;;17.50;92.50;;;;;;5029039;28;20021;-78
2021/07/11 03:55:37;;;;;;;9.02;5.75;;;17.60;92.60;;;;;;5027927;28;20029;-78
2021/07/11 03:58:04;;;;;;;6.15;5.43;;;17.60;92.60;;;;;;5029738;28;20030;-78
2021/07/11 04:00:31;;;;;;;6.80;4.90;;;17.60;92.50;;;;;;5044976;28;20033;-79
2021/07/11 04:03:00;;;;;;;8.63;5.97;;;17.60;92.50;;;;;;5029140;28;20388;-79
2021/07/11 04:05:29;;;;;;;5.88;5.38;;;17.60;92.50;;;;;;5044658;28;20038;-77
2021/07/11 04:07:55;;;;;;;7.53;5.95;;;17.70;92.50;;;;;;5029382;28;20377;-79
2021/07/11 04:10:24;;;;;;;6.35;5.85;;;17.60;92.40;;;;;;5028386;28;20098;-79
2021/07/11 04:12:50;;;;;;;6.65;6.00;;;17.60;92.60;;;;;;5029190;28;20392;-78
2021/07/11 04:15:15;;;;;;;7.32;5.78;;;17.60;92.70;;;;;;5028150;28;20045;-78
2021/07/11 04:17:47;;;;;;;7.82;5.80;;;17.50;92.70;;;;;;5044802;28;20056;-78
2021/07/11 04:20:15;;;;;;;6.45;5.80;;;17.50;92.80;;;;;;5045133;28;20025;-78
2021/07/11 04:22:42;;;;;;;6.68;5.32;;;17.50;92.80;;;;;;5029033;28;20381;-77
2021/07/11 04:25:10;;;;;;;6.60;6.00;;;17.40;92.90;;;;;;5029323;28;20040;-79
2021/07/11 04:27:38;;;;;;;6.18;5.05;;;17.40;93.00;;;;;;5045420;28;20045;-78
2021/07/11 04:30:06;;;;;;;6.20;5.60;;;17.40;93.10;;;;;;5028586;28;20026;-78
2021/07/11 04:32:33;;;;;;;8.50;5.70;;;17.40;93.20;;;;;;5045095;28;20113;-78
2021/07/11 04:34:59;;;;;;;6.20;5.63;;;17.40;93.20;;;;;;5026849;28;20466;-78
2021/07/11 04:37:24;;;;;;;6.35;5.75;;;17.40;93.20;;;;;;5026834;28;20117;-79
2021/07/11 04:39:50;;;;;;;7.25;6.20;;;17.40;93.20;;;;;;5010522;28;20034;-79
2021/07/11 04:42:16;;;;;;;6.45;5.85;;;17.40;93.20;;;;;;5028211;28;20057;-78
2021/07/11 04:44:45;;;;;;;6.25;5.70;;;17.40;93.20;;;;;;5026784;28;20460;-79
2021/07/11 04:47:13;;;;;;;8.20;5.63;;;17.40;93.20;;;;;;5043301;28;20034;-79
2021/07/11 04:49:39;;;;;;;12.05;5.90;;;17.40;93.20;;;;;;5026640;28;20142;-80
2021/07/11 04:52:05;;;;;;;11.40;6.35;;;17.30;93.20;;;;;;5026537;28;20041;-79
2021/07/11 04:54:33;;;;;;;6.47;5.20;;;17.30;93.20;;;;;;5028491;28;20029;-78
2021/07/11 04:56:58;;;;;;;11.93;5.85;;;17.10;93.20;;;;;;5027474;28;20497;-77
2021/07/11 04:59:24;;;;;;;9.48;5.70;;;17.10;93.40;;;;;;5046042;28;20121;-78
2021/07/11 05:01:50;;;;;;;6.00;5.45;;;17.00;93.60;;;;;;5033573;28;20380;-79
2021/07/11 05:04:16;;;;;;;6.00;5.43;;;17.00;93.70;;;;;;5033756;28;20049;-79
2021/07/11 05:06:41;;;;;;;7.15;6.10;;;17.00;93.80;;;;;;5032491;28;20058;-78
2021/07/11 05:09:08;;;;;;;7.72;6.03;;;17.10;93.80;;;;;;5032408;28;20037;-79
2021/07/11 05:11:34;;;;;;;6.03;5.43;;;17.10;93.90;;;;;;5049745;28;20045;-79
2021/07/11 05:14:00;;;;;;;6.15;5.55;;;17.10;94.00;;;;;;5034342;28;20361;-79
2021/07/11 05:16:26;;;;;;;7.22;6.10;;;17.10;94.00;;;;;;5049334;28;20132;-78
2021/07/11 05:18:51;;;;;;;6.93;6.20;;;17.20;94.10;;;;;;5032999;28;20056;-78
2021/07/11 05:21:17;;;;;;;13.05;12.15;;;17.20;94.20;;;;;;5032430;28;20088;-78
2021/07/11 05:23:43;;;;;;;6.00;5.47;;;17.30;94.20;;;;;;5015983;28;20507;-77
2021/07/11 05:26:09;;;;;;;7.10;5.65;;;17.30;94.10;;;;;;5032110;28;20116;-78
2021/07/11 05:28:34;;;;;;;6.70;6.05;;;17.30;94.10;;;;;;5032560;28;20021;-78
2021/07/11 05:31:00;;;;;;;6.60;5.85;;;17.30;94.10;;;;;;5032166;28;20037;-78
2021/07/11 05:33:26;;;;;;;7.88;6.15;;;17.40;94.10;;;;;;5031563;28;20026;-79
2021/07/11 05:35:52;;;;;;;10.27;5.78;;;17.40;94.10;;;;;;5032904;28;20029;-79
2021/07/11 05:38:17;;;;;;;6.60;5.70;;;17.40;94.00;;;;;;5032655;28;20109;-78
2021/07/11 05:40:43;;;;;;;6.75;5.50;;;17.50;93.90;;;;;;5033476;28;20037;-77
2021/07/11 05:43:09;;;;;;;6.03;5.53;;;17.60;93.90;;;;;;5033839;28;20060;-79
2021/07/11 05:45:35;;;;;;;6.28;5.68;;;17.60;93.90;;;;;;5049290;28;20037;-78
2021/07/11 05:48:00;;;;;;;7.53;5.78;;;17.70;93.90;;;;;;5032966;28;20029;-78
2021/07/11 05:50:26;;;;;;;5.93;5.43;;;17.70;93.80;;;;;;5030930;28;20065;-78
2021/07/11 05:52:52;;;;;;;6.25;5.75;;;17.70;93.60;;;;;;5032343;28;20028;-77
2021/07/11 05:55:18;;;;;;;6.05;5.55;;;17.80;93.60;;;;;;5032754;28;20077;-78
2021/07/11 05:57:43;;;;;;;6.28;5.68;;;17.90;93.50;;;;;;5033296;28;20033;-78
2021/07/11 06:00:11;;;;;;;5.80;5.20;;;17.90;93.50;;;;;;5030565;28;20476;-79
2021/07/11 06:02:37;;;;;;;6.47;5.82;;;18.00;93.40;;;;;;5046362;28;20554;-79
2021/07/11 06:05:03;;;;;;;6.55;5.95;;;18.00;93.40;;;;;;5029598;28;20054;-79
2021/07/11 06:07:29;;;;;;;6.50;5.95;;;18.10;93.50;;;;;;5048212;28;20021;-77
2021/07/11 06:09:57;;;;;;;5.88;5.28;;;18.20;93.50;;;;;;5032557;28;20615;-79
2021/07/11 06:12:23;;;;;;;5.72;5.13;;;18.30;93.50;;;;;;5034618;28;20022;-77
2021/07/11 06:14:49;;;;;;;6.18;5.68;;;18.60;93.40;;;;;;5034101;28;20030;-79
2021/07/11 06:17:15;;;;;;;6.18;5.68;;;18.90;93.00;;;;;;5050469;28;20061;-77
2021/07/11 06:19:41;;;;;;;6.93;6.38;;;19.10;92.70;;;;;;5030396;28;20033;-78
2021/07/11 06:22:06;;;;;;;9.43;8.55;;;19.50;92.70;;;;;;5045821;28;20053;-78
2021/07/11 06:24:32;;;;;;;15.82;14.73;;;19.90;92.30;;;;;;5028759;28;20045;-79
2021/07/11 06:26:58;;;;;;;18.65;17.38;;;20.70;91.80;;;;;;5030018;28;20021;-79
2021/07/11 06:29:24;;;;;;;17.67;16.67;;;21.40;90.80;;;;;;5029184;28;20398;-78
2021/07/11 06:31:49;;;;;;;16.73;15.65;;;21.70;90.00;;;;;;5012370;28;20030;-80
2021/07/11 06:34:15;;;;;;;17.90;16.88;;;21.90;88.60;;;;;;5012403;28;20441;-78
2021/07/11 06:36:41;;;;;;;19.33;18.20;;;21.80;87.30;;;;;;5012477;28;20038;-79
2021/07/11 06:39:07;;;;;;;25.92;24.42;;;21.50;86.90;;;;;;5030298;28;20113;-77
2021/07/11 06:41:33;;;;;;;24.48;22.98;;;21.10;87.00;;;;;;5012400;28;20048;-80
2021/07/11 06:43:58;;;;;;;21.02;19.90;;;20.80;87.40;;;;;;5029784;28;20036;-78
2021/07/11 06:46:24;;;;;;;26.38;24.88;;;20.50;88.00;;;;;;5029029;28;20072;-79
2021/07/11 06:48:50;;;;;;;21.95;20.77;;;20.40;88.20;;;;;;5028422;28;20464;-79
2021/07/11 06:51:16;;;;;;;22.13;20.73;;;20.20;88.20;;;;;;5028537;28;20029;-80
2021/07/11 06:53:42;;;;;;;22.95;21.75;;;20.10;88.20;;;;;;5028654;28;20365;-79
2021/07/11 06:56:08;;;;;;;19.63;18.52;;;20.00;88.30;;;;;;5030943;28;20049;-79
2021/07/11 06:58:34;;;;;;;18.23;17.13;;;19.90;88.30;;;;;;5029904;28;20412;-78
2021/07/11 07:01:00;;;;;;;19.23;17.98;;;19.90;88.60;;;;;;5030257;28;20388;-78
2021/07/11 07:03:26;;;;;;;17.13;16.13;;;19.80;88.70;;;;;;5012127;28;20404;-78
2021/07/11 07:05:52;;;;;;;16.88;15.98;;;19.80;88.70;;;;;;5012213;28;20132;-79
2021/07/11 07:08:18;;;;;;;17.27;16.17;;;19.80;88.40;;;;;;5030368;28;20342;-78
2021/07/11 07:10:43;;;;;;;19.02;17.85;;;19.80;88.30;;;;;;5012271;28;20124;-79
2021/07/11 07:13:09;;;;;;;17.90;16.90;;;19.80;88.20;;;;;;5029061;28;20026;-79
2021/07/11 07:15:35;;;;;;;15.27;14.45;;;19.80;88.20;;;;;;5029380;28;20514;-79
2021/07/11 07:18:00;;;;;;;18.08;17.08;;;19.90;88.30;;;;;;5028636;28;20033;-80
2021/07/11 07:20:27;;;;;;;16.10;15.15;;;19.90;88.20;;;;;;5011668;28;20025;-79
2021/07/11 07:22:53;;;;;;;17.02;16.02;;;19.90;87.90;;;;;;5011239;28;20053;-79
2021/07/11 07:25:19;;;;;;;19.98;18.77;;;19.90;87.60;;;;;;5028266;28;20040;-79
2021/07/11 07:27:46;;;;;;;14.52;13.52;;;19.90;87.80;;;;;;5011954;28;20060;-78
2021/07/11 07:30:20;;;;;;;15.35;14.27;;;20.00;87.70;;;;;;5029352;28;20119;-79
2021/07/11 07:32:48;;;;;;;15.48;14.52;;;20.00;87.80;;;;;;5028635;28;20033;-78
2021/07/11 07:35:15;;;;;;;17.88;16.88;;;20.10;87.70;;;;;;5012938;28;20029;-79
2021/07/11 07:37:41;;;;;;;17.35;16.25;;;20.20;87.60;;;;;;5029148;28;20433;-78
2021/07/11 07:40:07;;;;;;;14.98;14.13;;;20.30;87.10;;;;;;5010928;28;20064;-79
2021/07/11 07:42:33;;;;;;;17.23;16.23;;;20.40;86.80;;;;;;5029309;28;20033;-79
2021/07/11 07:44:59;;;;;;;14.80;13.63;;;20.50;86.60;;;;;;5028314;28;20033;-79
2021/07/11 07:47:25;;;;;;;15.57;14.77;;;20.50;86.30;;;;;;5027688;28;20472;-79
2021/07/11 07:49:52;;;;;;;15.70;14.70;;;20.70;86.00;;;;;;5010882;28;20083;-79
2021/07/11 07:52:18;;;;;;;15.43;14.43;;;20.70;85.40;;;;;;5028463;28;20457;-79
2021/07/11 07:54:44;;;;;;;15.63;14.68;;;20.70;85.10;;;;;;5028733;28;20108;-79
2021/07/11 07:57:10;;;;;;;19.05;17.52;;;20.80;85.20;;;;;;5027492;28;20112;-79
2021/07/11 07:59:35;;;;;;;22.00;20.13;;;20.80;84.90;;;;;;5029663;28;20034;-78
2021/07/11 08:02:01;;;;;;;20.92;19.73;;;20.90;84.70;;;;;;5011872;28;20026;-78
2021/07/11 08:04:27;;;;;;;33.95;32.10;;;21.10;84.50;;;;;;5029374;28;20033;-78
2021/07/11 08:06:53;;;;;;;15.70;14.80;;;21.30;84.20;;;;;;5029275;28;20358;-79
2021/07/11 08:09:19;;;;;;;22.67;21.33;;;21.50;83.90;;;;;;5028897;28;20025;-79
2021/07/11 08:11:45;;;;;;;15.27;14.38;;;21.70;84.40;;;;;;5027828;28;20028;-78
2021/07/11 08:14:11;;;;;;;14.30;13.30;;;21.80;84.50;;;;;;5030203;28;20025;-78
2021/07/11 08:16:36;;;;;;;15.45;14.63;;;21.90;84.60;;;;;;5012692;28;20031;-78
2021/07/11 08:19:03;;;;;;;19.60;18.50;;;22.00;84.70;;;;;;5029128;28;20030;-77
2021/07/11 08:21:29;;;;;;;15.50;14.52;;;22.20;84.60;;;;;;5028518;28;20053;-78
2021/07/11 08:23:55;;;;;;;18.92;17.60;;;22.40;84.50;;;;;;5029696;28;20025;-78
2021/07/11 08:26:21;;;;;;;17.73;16.80;;;22.60;83.60;;;;;;5012863;28;20030;-77
2021/07/11 08:28:47;;;;;;;16.08;15.07;;;22.70;83.10;;;;;;5030791;28;20559;-77
2021/07/11 08:31:13;;;;;;;17.55;16.45;;;22.70;82.20;;;;;;5030055;28;20030;-78
2021/07/11 08:33:39;;;;;;;14.77;13.77;;;22.70;81.60;;;;;;5028622;28;20112;-77
2021/07/11 08:36:04;;;;;;;14.90;14.00;;;22.50;81.20;;;;;;5029577;28;20032;-78
2021/07/11 08:38:30;;;;;;;13.70;12.80;;;22.40;81.40;;;;;;5030955;28;20407;-78
2021/07/11 08:40:56;;;;;;;12.30;11.50;;;22.20;81.50;;;;;;5045277;28;20052;-79
2021/07/11 08:43:24;;;;;;;13.68;12.80;;;22.10;81.50;;;;;;5028978;28;20039;-78
2021/07/11 08:45:50;;;;;;;16.15;15.15;;;22.00;81.60;;;;;;5029913;28;20091;-78
2021/07/11 08:48:16;;;;;;;15.63;14.65;;;21.90;81.60;;;;;;5028884;28;20030;-79
2021/07/11 08:50:42;;;;;;;20.20;18.60;;;21.80;81.80;;;;;;5010931;28;20116;-78
2021/07/11 08:53:17;;;;;;;20.02;18.92;;;21.70;82.00;;;;;;5027179;28;20483;-79
2021/07/11 08:55:43;;;;;;;38.17;36.28;;;21.60;82.30;;;;;;5028093;28;20420;-78
2021/07/11 08:58:12;;;;;;;23.65;22.27;;;21.50;82.40;;;;;;5028850;28;20029;-78
2021/07/11 09:00:39;;;;;;;18.33;17.17;;;21.40;82.60;;;;;;5027930;28;20033;-78
2021/07/11 09:03:06;;;;;;;19.40;18.35;;;21.40;82.90;;;;;;5029196;28;20022;-78
2021/07/11 09:05:39;;;;;;;26.55;25.13;;;21.30;82.80;;;;;;5026903;28;20369;-78
2021/07/11 09:08:16;;;;;;;16.63;15.35;;;21.20;82.80;;;;;;5026445;28;20452;-78
2021/07/11 09:11:12;;;;;;;18.88;17.75;;;21.10;82.70;;;;;;5026454;28;20030;-77
2021/07/11 09:13:38;;;;;;;13.18;12.32;;;21.00;82.80;;;;;;5026772;28;20033;-79
2021/07/11 09:16:04;;;;;;;20.23;19.13;;;21.00;82.80;;;;;;5026167;28;20036;-79
2021/07/11 09:18:32;;;;;;;16.50;15.60;;;20.90;82.90;;;;;;5009406;28;20033;-79
2021/07/11 09:21:06;;;;;;;14.05;13.10;;;21.00;83.10;;;;;;5026926;28;20542;-79
2021/07/11 09:23:33;;;;;;;15.50;14.70;;;21.10;83.10;;;;;;5042308;28;20033;-79
2021/07/11 09:26:05;;;;;;;13.75;13.05;;;21.20;82.90;;;;;;5026635;28;20054;-79
2021/07/11 09:28:32;;;;;;;16.88;15.98;;;21.30;82.50;;;;;;5025639;28;20030;-78
2021/07/11 09:31:08;;;;;;;13.95;13.15;;;21.30;82.30;;;;;;5026567;28;20472;-78
2021/07/11 09:33:36;;;;;;;17.73;16.73;;;21.30;82.30;;;;;;5025195;28;20449;-78
2021/07/11 09:36:06;;;;;;;13.23;12.43;;;21.20;82.00;;;;;;5025500;28;20044;-78
2021/07/11 09:38:32;;;;;;;14.13;13.23;;;21.10;82.00;;;;;;5026587;28;20021;-78
2021/07/11 09:40:57;;;;;;;24.98;23.35;;;21.00;82.10;;;;;;5008811;28;20388;-78
2021/07/11 09:43:23;;;;;;;13.32;12.38;;;20.90;82.30;;;;;;5025963;28;20029;-80
2021/07/11 09:45:49;;;;;;;10.73;9.85;;;20.90;82.90;;;;;;5010795;28;20029;-78
2021/07/11 09:48:14;;;;;;;6.70;6.10;;;20.70;83.50;;;;;;5029344;28;20033;-79
2021/07/11 09:50:40;;;;;;;10.35;9.65;;;20.50;85.20;;;;;;5029067;28;20120;-78
2021/07/11 09:53:07;;;;;;;10.32;9.63;;;20.50;85.70;;;;;;5028767;28;20022;-78
2021/07/11 09:55:35;;;;;;;6.40;5.90;;;20.30;86.00;;;;;;5045539;28;20040;-80
2021/07/11 09:58:04;;;;;;;7.10;6.50;;;20.20;86.50;;;;;;5045594;28;20329;-79
2021/07/11 10:00:30;;;;;;;6.95;6.35;;;20.00;86.70;;;;;;5029444;28;20033;-79
2021/07/11 10:03:01;;;;;;;6.90;5.95;;;19.90;86.80;;;;;;5045516;28;20026;-79
2021/07/11 10:05:28;;;;;;;5.20;4.80;;;19.70;87.40;;;;;;5030020;28;20468;-80
2021/07/11 10:07:55;;;;;;;6.28;5.78;;;19.60;88.30;;;;;;5028198;28;20538;-79
2021/07/11 10:10:23;;;;;;;5.80;5.10;;;19.50;88.90;;;;;;5030006;28;20026;-72
2021/07/11 10:12:49;;;;;;;5.75;5.25;;;19.50;89.40;;;;;;5029702;28;20033;-80
2021/07/11 10:15:25;;;;;;;7.00;6.15;;;19.40;89.80;;;;;;5028452;28;20140;-80
2021/07/11 10:18:06;;;;;;;12.43;8.20;;;19.20;90.20;;;;;;5030200;28;20026;-80
2021/07/11 10:20:42;;;;;;;17.83;11.65;;;19.00;90.60;;;;;;5044640;28;20047;-80
2021/07/11 10:23:21;;;;;;;8.95;7.53;;;18.80;91.00;;;;;;5027903;28;20049;-80
2021/07/11 10:25:59;;;;;;;11.97;10.73;;;18.60;91.40;;;;;;5044558;28;20025;-81
2021/07/11 10:28:30;;;;;;;10.10;9.32;;;18.40;92.20;;;;;;5028168;28;20782;-79
2021/07/11 10:30:56;;;;;;;11.90;10.80;;;18.30;92.80;;;;;;5029168;28;20036;-79
2021/07/11 10:33:23;;;;;;;11.68;10.70;;;18.30;93.20;;;;;;5028023;28;20048;-79
2021/07/11 10:35:50;;;;;;;12.82;11.82;;;18.30;93.50;;;;;;5012005;28;20029;-80
2021/07/11 10:38:44;;;;;;;11.43;10.18;;;18.40;94.00;;;;;;5029275;28;20490;-79
2021/07/11 10:41:22;;;;;;;12.23;11.35;;;18.40;94.70;;;;;;5028105;28;20494;-79
2021/07/11 10:44:11;;;;;;;13.07;12.07;;;18.50;95.00;;;;;;5027864;28;20371;-79
2021/07/11 10:47:01;;;;;;;10.20;9.25;;;18.60;95.50;;;;;;5027451;28;20037;-80
2021/07/11 10:49:32;;;;;;;11.93;10.88;;;18.60;95.40;;;;;;5026993;28;20037;-80
2021/07/11 10:52:06;;;;;;;7.72;7.13;;;18.60;95.40;;;;;;5027627;28;20030;-80
2021/07/11 10:54:34;;;;;;;8.50;7.70;;;18.70;95.60;;;;;;5029050;28;20534;-78
2021/07/11 10:57:09;;;;;;;9.80;8.95;;;18.80;95.50;;;;;;5043554;28;20026;-79
2021/07/11 10:59:36;;;;;;;12.20;11.02;;;18.90;95.60;;;;;;5043905;28;20025;-80
2021/07/11 11:02:19;;;;;;;12.20;11.40;;;19.00;95.50;;;;;;5027442;28;20056;-79
2021/07/11 11:04:57;;;;;;;9.70;8.98;;;19.00;95.60;;;;;;5027353;28;20083;-81
2021/07/11 11:07:22;;;;;;;9.07;8.48;;;19.10;95.60;;;;;;5044236;28;20021;-79
2021/07/11 11:09:49;;;;;;;9.07;8.48;;;19.10;95.90;;;;;;5027537;28;20071;-79
2021/07/11 11:12:26;;;;;;;8.98;8.27;;;19.10;95.80;;;;;;5027644;28;20087;-79
2021/07/11 11:15:03;;;;;;;17.30;16.00;;;19.10;96.00;;;;;;5028752;28;20061;-79
2021/07/11 11:17:34;;;;;;;9.45;8.75;;;19.20;95.90;;;;;;5028408;28;20079;-78
2021/07/11 11:20:06;;;;;;;9.18;8.48;;;19.40;95.80;;;;;;5028510;28;20018;-80
2021/07/11 11:22:32;;;;;;;9.27;8.38;;;19.40;95.90;;;;;;5043769;28;20045;-79
2021/07/11 11:24:59;;;;;;;22.13;20.85;;;19.50;95.90;;;;;;5027541;28;20037;-80
2021/07/11 11:27:40;;;;;;;22.40;21.20;;;19.60;96.00;;;;;;5027026;28;20028;-80
2021/07/11 11:30:17;;;;;;;32.63;30.77;;;19.70;95.90;;;;;;5027555;28;20071;-79
2021/07/11 11:32:50;;;;;;;33.38;31.65;;;19.80;95.70;;;;;;5028482;28;20021;-78
2021/07/11 11:35:21;;;;;;;40.40;38.10;;;19.80;95.40;;;;;;5026871;28;20029;-79
2021/07/11 11:37:52;;;;;;;26.80;25.48;;;19.80;95.10;;;;;;5026857;28;20372;-79
2021/07/11 11:40:19;;;;;;;29.58;27.88;;;19.80;95.00;;;;;;5028244;28;20105;-79
2021/07/11 11:42:47;;;;;;;15.48;14.48;;;19.80;95.00;;;;;;5026746;28;20041;-80
2021/07/11 11:45:14;;;;;;;56.53;53.58;;;19.80;95.00;;;;;;5010212;28;20029;-70
2021/07/11 11:47:40;;;;;;;27.15;25.65;;;19.80;95.00;;;;;;5028165;28;20125;-79
2021/07/11 11:50:18;;;;;;;19.75;18.52;;;19.90;95.10;;;;;;5010329;28;20075;-78
2021/07/11 11:52:45;;;;;;;13.00;12.32;;;19.90;95.10;;;;;;5027738;28;20064;-81
2021/07/11 11:55:12;;;;;;;10.55;10.05;;;19.90;94.60;;;;;;5026082;28;20029;-81
2021/07/11 11:57:40;;;;;;;8.27;7.88;;;20.00;94.30;;;;;;5010217;28;20057;-80
2021/07/11 12:00:13;;;;;;;8.48;7.97;;;20.00;94.20;;;;;;5027668;28;20476;-80
2021/07/11 12:02:39;;;;;;;13.13;12.43;;;20.10;94.10;;;;;;5043129;28;20456;-79
2021/07/11 12:05:13;;;;;;;16.38;15.57;;;20.20;93.80;;;;;;5027590;28;20037;-79
2021/07/11 12:07:40;;;;;;;18.33;17.42;;;20.30;93.30;;;;;;5026266;28;20428;-80
2021/07/11 12:10:06;;;;;;;14.45;13.75;;;20.30;93.10;;;;;;5025609;28;20564;-78
2021/07/11 12:12:32;;;;;;;22.52;21.42;;;20.10;93.00;;;;;;5026711;28;20108;-78
2021/07/11 12:15:00;;;;;;;11.95;11.35;;;20.10;93.00;;;;;;5026592;28;20117;-79
2021/07/11 12:17:33;;;;;;;9.15;8.65;;;20.00;93.00;;;;;;5026909;28;20093;-79
2021/07/11 12:19:59;;;;;;;14.35;13.65;;;20.00;93.10;;;;;;5042713;28;20021;-80
2021/07/11 12:22:29;;;;;;;18.95;17.88;;;19.90;93.00;;;;;;5026033;28;20052;-81
2021/07/11 12:25:15;;;;;;;;;;;19.90;93.00;;;;;;5026653;28;20484;-80
2021/07/11 12:27:43;;;;;;;18.50;17.60;;;20.00;93.10;;;;;;5042725;28;19944;-77
2021/07/11 12:30:20;;;;;;;23.83;22.63;;;20.00;93.00;;;;;;5025829;28;20515;-78
2021/07/11 12:32:52;;;;;;;17.98;17.05;;;20.10;92.90;;;;;;5026347;28;20075;-79
2021/07/11 12:35:19;;;;;;;17.85;16.95;;;20.10;92.70;;;;;;5026709;28;20025;-76
2021/07/11 12:37:53;;;;;;;18.25;17.35;;;20.20;92.60;;;;;;5026218;28;20399;-78
2021/07/11 12:40:24;;;;;;;20.70;19.70;;;20.20;92.30;;;;;;5025939;28;20499;-80
2021/07/11 12:43:19;;;;;;;19.20;18.25;;;20.10;92.30;;;;;;5027714;28;20025;-77